createdAt,value
2018-09-02T00:01:51.067Z,99.90
2018-09-02T00:04:22.884Z,99.90
2018-09-02T00:06:54.142Z,99.90
2018-09-02T00:09:25.582Z,99.90
2018-09-02T00:11:56.019Z,99.90
2018-09-02T00:14:27.037Z,99.90
2018-09-02T00:16:56.778Z,99.90
2018-09-02T00:19:29.072Z,99.90
2018-09-02T00:22:00.325Z,99.90
2018-09-02T00:24:31.109Z,99.90
2018-09-02T00:27:01.895Z,99.90
2018-09-02T00:29:34.361Z,99.90
2018-09-02T00:32:04.753Z,99.90
2018-09-02T00:34:35.373Z,99.90
2018-09-02T00:37:06.494Z,99.90
2018-09-02T00:39:37.844Z,99.90
2018-09-02T00:42:09.294Z,99.90
2018-09-02T00:44:39.982Z,99.90
2018-09-02T00:47:11.897Z,99.90
2018-09-02T00:49:43.178Z,99.90
2018-09-02T00:52:13.891Z,99.90
2018-09-02T00:54:45.003Z,99.90
2018-09-02T00:57:15.978Z,99.90
2018-09-02T00:59:47.341Z,99.90
2018-09-02T01:02:18.265Z,99.90
2018-09-02T01:04:50.817Z,99.90
2018-09-02T01:07:22.684Z,99.90
2018-09-02T01:09:53.473Z,99.90
2018-09-02T01:12:26.632Z,99.90
2018-09-02T01:14:57.851Z,99.90
2018-09-02T01:17:28.902Z,99.90
2018-09-02T01:19:59.970Z,99.90
2018-09-02T01:22:31.932Z,99.90
2018-09-02T01:25:04.714Z,99.90
2018-09-02T01:27:35.743Z,99.90
2018-09-02T01:30:06.236Z,99.90
2018-09-02T01:32:36.525Z,99.90
2018-09-02T01:35:07.462Z,99.90
2018-09-02T01:37:38.605Z,99.90
2018-09-02T01:40:10.168Z,99.90
2018-09-02T01:42:41.194Z,99.90
2018-09-02T01:45:12.423Z,99.90
2018-09-02T01:47:43.500Z,99.90
2018-09-02T01:50:13.754Z,99.90
2018-09-02T01:52:44.965Z,99.90
2018-09-02T01:55:15.974Z,99.90
2018-09-02T01:57:46.674Z,99.90
2018-09-02T02:00:18.789Z,99.90
2018-09-02T02:02:50.227Z,99.90
2018-09-02T02:05:21.447Z,99.90
2018-09-02T02:07:53.150Z,99.90
2018-09-02T02:10:24.215Z,99.90
2018-09-02T02:12:55.624Z,99.90
2018-09-02T02:15:26.465Z,99.90
2018-09-02T02:17:57.019Z,99.90
2018-09-02T02:20:27.757Z,99.90
2018-09-02T02:22:58.658Z,99.90
2018-09-02T02:25:31.169Z,99.90
2018-09-02T02:28:02.502Z,99.90
2018-09-02T02:30:33.531Z,99.90
2018-09-02T02:33:04.570Z,99.90
2018-09-02T02:35:35.314Z,99.90
2018-09-02T02:38:06.106Z,99.90
2018-09-02T02:40:37.529Z,99.90
2018-09-02T02:43:07.195Z,99.90
2018-09-02T02:45:35.554Z,99.90
2018-09-02T02:48:03.980Z,99.90
2018-09-02T02:50:32.371Z,99.90
2018-09-02T02:53:02.774Z,99.90
2018-09-02T02:55:32.087Z,99.90
2018-09-02T02:58:00.981Z,99.90
2018-09-02T03:00:29.330Z,99.90
2018-09-02T03:02:57.806Z,99.90
2018-09-02T03:05:26.317Z,99.90
2018-09-02T03:07:54.620Z,99.90
2018-09-02T03:10:23.067Z,99.90
2018-09-02T03:12:51.472Z,99.90
2018-09-02T03:15:19.776Z,99.90
2018-09-02T03:17:48.518Z,99.90
2018-09-02T03:20:16.875Z,99.90
2018-09-02T03:22:45.283Z,99.90
2018-09-02T03:25:13.711Z,99.90
2018-09-02T03:27:42.123Z,99.90
2018-09-02T03:30:10.476Z,99.90
2018-09-02T03:32:38.774Z,99.90
2018-09-02T03:35:07.078Z,99.90
2018-09-02T03:37:35.443Z,99.90
2018-09-02T03:40:03.786Z,99.90
2018-09-02T03:42:32.414Z,99.90
2018-09-02T03:45:00.690Z,99.90
2018-09-02T03:47:29.124Z,99.90
2018-09-02T03:49:57.474Z,99.90
2018-09-02T03:52:25.830Z,99.90
2018-09-02T03:54:54.231Z,99.90
2018-09-02T03:57:22.563Z,99.90
2018-09-02T03:59:51.584Z,99.90
2018-09-02T04:02:19.956Z,99.90
2018-09-02T04:04:48.343Z,99.90
2018-09-02T04:07:16.745Z,99.90
2018-09-02T04:09:45.122Z,99.90
2018-09-02T04:12:13.422Z,99.90
2018-09-02T04:14:41.828Z,99.90
2018-09-02T04:17:10.185Z,99.90
2018-09-02T04:19:38.484Z,99.90
2018-09-02T04:22:06.787Z,99.90
2018-09-02T04:24:35.736Z,99.90
2018-09-02T04:27:04.147Z,99.90
2018-09-02T04:29:32.494Z,99.90
2018-09-02T04:32:00.816Z,99.90
2018-09-02T04:34:29.247Z,99.90
2018-09-02T04:36:57.670Z,99.90
2018-09-02T04:39:26.088Z,99.90
2018-09-02T04:41:54.465Z,99.90
2018-09-02T04:44:22.916Z,99.90
2018-09-02T04:46:58.021Z,99.90
2018-09-02T04:52:00.624Z,99.90
2018-09-02T04:54:29.628Z,99.90
2018-09-02T04:56:57.906Z,99.90
2018-09-02T04:59:26.479Z,99.90
2018-09-02T05:01:54.832Z,99.90
2018-09-02T05:04:23.155Z,99.90
2018-09-02T05:06:51.575Z,99.90
2018-09-02T05:09:19.941Z,99.90
2018-09-02T05:11:48.436Z,99.90
2018-09-02T05:14:16.888Z,99.90
2018-09-02T05:16:45.209Z,99.90
2018-09-02T05:19:13.606Z,99.90
2018-09-02T05:21:41.915Z,99.90
2018-09-02T05:24:10.279Z,99.90
2018-09-02T05:26:38.623Z,99.90
2018-09-02T05:29:07.004Z,99.90
2018-09-02T05:31:35.335Z,99.90
2018-09-02T05:34:03.743Z,99.90
2018-09-02T05:36:32.082Z,99.90
2018-09-02T05:39:00.378Z,99.90
2018-09-02T05:41:28.737Z,99.90
2018-09-02T05:43:57.179Z,99.90
2018-09-02T05:46:25.495Z,99.90
2018-09-02T05:48:53.826Z,99.90
2018-09-02T05:51:22.132Z,99.90
2018-09-02T05:53:50.484Z,99.90
2018-09-02T05:56:18.836Z,99.90
2018-09-02T05:58:47.289Z,99.90
2018-09-02T06:01:16.364Z,99.90
2018-09-02T06:03:44.668Z,99.90
2018-09-02T06:06:13.043Z,99.90
2018-09-02T06:08:41.335Z,99.90
2018-09-02T06:11:09.687Z,99.90
2018-09-02T06:13:38.035Z,99.90
2018-09-02T06:16:06.398Z,99.90
2018-09-02T06:18:34.718Z,99.90
2018-09-02T06:21:03.030Z,99.90
2018-09-02T06:23:31.497Z,99.90
2018-09-02T06:25:59.943Z,99.90
2018-09-02T06:28:28.259Z,99.90
2018-09-02T06:30:56.629Z,99.90
2018-09-02T06:33:25.346Z,99.90
2018-09-02T06:35:53.798Z,99.90
2018-09-02T06:38:22.110Z,99.90
2018-09-02T06:40:50.439Z,99.90
2018-09-02T06:43:25.792Z,99.90
2018-09-02T06:45:54.166Z,99.90
2018-09-02T06:48:22.525Z,99.90
2018-09-02T06:50:50.882Z,99.90
2018-09-02T06:53:19.235Z,99.90
2018-09-02T06:55:47.587Z,99.90
2018-09-02T06:58:15.865Z,99.90
2018-09-02T07:00:44.242Z,99.90
2018-09-02T07:03:12.551Z,99.90
2018-09-02T07:05:42.102Z,99.90
2018-09-02T07:08:12.551Z,99.90
2018-09-02T07:10:41.888Z,99.90
2018-09-02T07:13:10.311Z,99.90
2018-09-02T07:15:38.610Z,99.90
2018-09-02T07:18:07.030Z,99.90
2018-09-02T07:20:35.757Z,99.90
2018-09-02T07:23:04.920Z,99.90
2018-09-02T07:25:33.666Z,99.90
2018-09-02T07:28:02.151Z,99.90
2018-09-02T07:30:30.714Z,99.90
2018-09-02T07:32:59.886Z,99.90
2018-09-02T07:35:28.302Z,99.90
2018-09-02T07:37:56.715Z,99.90
2018-09-02T07:40:25.124Z,99.90
2018-09-02T07:42:53.490Z,99.90
2018-09-02T07:45:21.903Z,99.90
2018-09-02T07:47:50.191Z,99.90
2018-09-02T07:50:18.556Z,99.90
2018-09-02T07:52:46.941Z,99.90
2018-09-02T07:55:15.314Z,99.90
2018-09-02T07:57:43.641Z,99.90
2018-09-02T08:00:12.018Z,99.90
2018-09-02T08:02:41.040Z,99.90
2018-09-02T08:05:10.294Z,99.90
2018-09-02T08:07:38.676Z,99.90
2018-09-02T08:10:08.430Z,99.90
2018-09-02T08:12:36.887Z,99.90
2018-09-02T08:15:05.648Z,99.90
2018-09-02T08:17:33.978Z,99.90
2018-09-02T08:20:02.323Z,99.90
2018-09-02T08:22:31.614Z,99.90
2018-09-02T08:24:59.972Z,99.90
2018-09-02T08:27:28.316Z,99.90
2018-09-02T08:29:56.722Z,99.90
2018-09-02T08:32:25.120Z,99.90
2018-09-02T08:34:53.491Z,99.90
2018-09-02T08:37:21.991Z,99.90
2018-09-02T08:39:50.897Z,99.90
2018-09-02T08:42:19.776Z,99.90
2018-09-02T08:44:50.169Z,99.90
2018-09-02T08:47:18.766Z,99.90
2018-09-02T08:49:47.359Z,99.90
2018-09-02T08:52:16.436Z,99.90
2018-09-02T08:54:47.589Z,99.90
2018-09-02T08:57:17.231Z,99.90
2018-09-02T08:59:46.095Z,99.90
2018-09-02T09:02:16.167Z,99.90
2018-09-02T09:04:44.920Z,99.90
2018-09-02T09:07:14.861Z,99.90
2018-09-02T09:09:43.258Z,99.90
2018-09-02T09:12:11.795Z,99.90
2018-09-02T09:14:40.611Z,99.90
2018-09-02T09:17:09.260Z,99.90
2018-09-02T09:19:37.652Z,99.90
2018-09-02T09:22:09.787Z,99.90
2018-09-02T09:24:38.376Z,99.90
2018-09-02T09:27:07.218Z,99.90
2018-09-02T09:29:36.382Z,99.90
2018-09-02T09:32:07.378Z,99.90
2018-09-02T09:34:36.283Z,99.90
2018-09-02T09:37:04.758Z,99.90
2018-09-02T11:18:55.802Z,99.90
2018-09-02T11:21:24.166Z,99.90
2018-09-02T11:23:52.537Z,99.90
2018-09-02T11:26:20.909Z,99.90
2018-09-02T11:28:49.330Z,99.90
2018-09-02T11:31:17.701Z,99.90
2018-09-02T11:33:46.155Z,99.90
2018-09-02T11:36:15.203Z,99.90
2018-09-02T11:38:43.577Z,99.90
2018-09-02T11:41:11.960Z,99.90
2018-09-02T11:43:40.415Z,99.90
2018-09-02T11:46:09.406Z,99.90
2018-09-02T11:48:37.987Z,99.90
2018-09-02T11:51:06.333Z,99.90
2018-09-02T11:53:34.716Z,99.90
2018-09-02T11:56:03.124Z,99.90
2018-09-02T11:58:31.434Z,99.90
2018-09-02T12:00:59.916Z,99.90
2018-09-02T12:03:28.259Z,99.90
2018-09-02T12:05:57.063Z,99.90
2018-09-02T12:08:25.455Z,99.90
2018-09-02T12:10:53.874Z,99.90
2018-09-02T12:13:22.258Z,99.90
2018-09-02T12:15:50.748Z,99.90
2018-09-02T12:18:19.103Z,99.90
2018-09-02T12:20:47.531Z,99.90
2018-09-02T12:23:15.817Z,99.90
2018-09-02T12:25:44.129Z,99.90
2018-09-02T12:28:12.511Z,99.90
2018-09-02T12:30:40.950Z,99.90
2018-09-02T12:33:09.342Z,99.90
2018-09-02T12:35:37.835Z,99.90
2018-09-02T12:38:06.451Z,99.90
2018-09-02T12:40:34.782Z,99.90
2018-09-02T12:43:03.183Z,99.90
2018-09-02T12:45:34.010Z,99.90
2018-09-02T12:48:02.524Z,99.90
2018-09-02T12:50:30.898Z,99.90
2018-09-02T12:52:59.238Z,99.90
2018-09-02T12:55:27.856Z,99.30
2018-09-02T12:57:56.206Z,98.00
2018-09-02T13:00:24.639Z,96.60
2018-09-02T13:02:53.007Z,94.10
2018-09-02T13:05:21.353Z,94.40
2018-09-02T13:07:50.985Z,94.80
2018-09-02T13:10:19.488Z,95.00
2018-09-02T13:12:47.901Z,95.60
2018-09-02T13:15:16.281Z,95.90
2018-09-02T13:17:44.601Z,96.70
2018-09-02T13:20:12.996Z,97.10
2018-09-02T13:22:41.366Z,97.20
2018-09-02T13:25:09.729Z,97.40
2018-09-02T13:27:38.124Z,97.40
2018-09-02T13:30:08.444Z,97.40
2018-09-02T13:32:36.844Z,97.90
2018-09-02T13:35:05.859Z,98.20
2018-09-02T13:37:34.259Z,98.40
2018-09-02T13:40:02.638Z,98.80
2018-09-02T13:42:30.994Z,98.90
2018-09-02T13:44:59.347Z,99.20
2018-09-02T13:47:27.679Z,99.30
2018-09-02T13:49:56.654Z,99.10
2018-09-02T13:52:25.099Z,99.10
2018-09-02T13:54:53.422Z,98.90
2018-09-02T13:57:21.827Z,98.80
2018-09-02T13:59:50.208Z,98.20
2018-09-02T14:02:18.547Z,97.90
2018-09-02T14:04:46.943Z,97.50
2018-09-02T14:07:16.374Z,97.30
2018-09-02T14:09:45.590Z,97.00
2018-09-02T14:12:13.956Z,96.50
2018-09-02T14:14:42.879Z,95.90
2018-09-02T14:17:11.230Z,95.20
2018-09-02T14:19:40.277Z,95.20
2018-09-02T14:22:08.703Z,95.30
2018-09-02T14:24:37.055Z,95.50
2018-09-02T14:27:05.379Z,95.40
2018-09-02T14:29:34.372Z,95.40
2018-09-02T14:32:03.417Z,95.20
2018-09-02T14:34:31.724Z,95.20
2018-09-02T14:37:00.186Z,95.00
2018-09-02T14:39:29.391Z,95.00
2018-09-02T14:41:57.759Z,95.10
2018-09-02T14:44:26.783Z,95.40
2018-09-02T14:46:55.165Z,95.80
2018-09-02T14:49:23.547Z,95.90
2018-09-02T14:51:51.922Z,96.20
2018-09-02T14:54:20.392Z,96.40
2018-09-02T14:56:49.031Z,96.60
2018-09-02T14:59:17.294Z,97.00
2018-09-02T15:01:45.655Z,97.10
2018-09-02T15:04:13.983Z,97.20
2018-09-02T15:06:42.373Z,97.20
2018-09-02T15:09:12.466Z,97.20
2018-09-02T15:11:40.852Z,97.30
2018-09-02T15:14:09.195Z,97.30
2018-09-02T15:16:37.885Z,97.30
2018-09-02T15:19:06.242Z,97.40
2018-09-02T15:21:36.627Z,97.30
2018-09-02T15:24:04.935Z,97.20
2018-09-02T15:26:33.237Z,97.40
2018-09-02T15:29:01.573Z,97.40
2018-09-02T15:31:29.879Z,97.50
2018-09-02T15:33:58.250Z,97.60
2018-09-02T15:36:27.854Z,97.70
2018-09-02T15:38:56.330Z,97.80
2018-09-02T15:41:24.701Z,97.80
2018-09-02T15:43:53.097Z,98.00
2018-09-02T15:46:21.470Z,98.10
2018-09-02T15:48:49.939Z,98.20
2018-09-02T15:51:18.322Z,98.30
2018-09-02T15:53:46.760Z,98.30
2018-09-02T15:56:15.111Z,98.40
2018-09-02T15:58:43.515Z,98.50
2018-09-02T16:01:11.866Z,98.50
2018-09-02T16:03:40.201Z,98.60
2018-09-02T16:06:08.579Z,98.60
2018-09-02T16:08:37.088Z,98.60
2018-09-02T16:11:05.418Z,98.70
2018-09-02T16:13:36.415Z,98.80
2018-09-02T16:16:04.802Z,98.90
2018-09-02T16:18:33.206Z,99.10
2018-09-02T16:21:01.648Z,99.20
2018-09-02T16:23:30.380Z,99.30
2018-09-02T16:25:58.695Z,99.50
2018-09-02T16:28:28.058Z,99.50
2018-09-02T16:30:56.467Z,99.50
2018-09-02T16:33:24.923Z,99.60
2018-09-02T16:35:53.301Z,99.60
2018-09-02T16:38:21.742Z,99.70
2018-09-02T16:40:54.223Z,99.80
2018-09-02T16:43:22.612Z,99.90
2018-09-02T16:45:50.974Z,99.90
2018-09-02T16:48:19.395Z,99.90
2018-09-02T16:50:47.726Z,99.90
2018-09-02T16:53:16.121Z,99.90
2018-09-02T16:55:44.568Z,99.90
2018-09-02T16:58:12.948Z,99.90
2018-09-02T17:00:42.061Z,99.90
2018-09-02T17:03:10.446Z,99.90
2018-09-02T17:05:38.795Z,99.90
2018-09-02T17:08:07.180Z,99.90
2018-09-02T17:10:35.559Z,99.90
2018-09-02T17:13:03.908Z,99.90
2018-09-02T17:15:32.299Z,99.90
2018-09-02T17:18:00.695Z,99.90
2018-09-02T17:20:37.918Z,99.90
2018-09-02T17:23:12.066Z,99.90
2018-09-02T17:25:41.938Z,99.90
2018-09-02T17:28:11.554Z,99.90
2018-09-02T17:30:39.936Z,99.90
2018-09-02T17:33:13.667Z,99.90
2018-09-02T17:35:42.135Z,99.90
2018-09-02T17:41:43.399Z,99.90
2018-09-02T17:44:11.751Z,99.90
2018-09-02T17:46:40.320Z,99.90
2018-09-02T17:49:15.411Z,99.90
2018-09-02T17:51:43.926Z,99.90
2018-09-02T17:54:23.367Z,99.90
2018-09-02T17:56:53.496Z,99.90
2018-09-02T17:59:23.186Z,99.90
2018-09-02T18:01:52.776Z,99.90
2018-09-02T18:04:25.626Z,99.90
2018-09-02T18:06:54.849Z,99.90
2018-09-02T18:09:29.154Z,99.90
2018-09-02T18:11:59.147Z,99.90
2018-09-02T18:14:28.481Z,99.90
2018-09-02T18:17:08.652Z,99.90
2018-09-02T18:19:39.891Z,99.90
2018-09-02T18:22:08.257Z,99.90
2018-09-02T18:24:38.012Z,99.90
2018-09-02T18:27:13.252Z,99.90
2018-09-02T18:29:45.650Z,99.90
2018-09-02T18:32:14.063Z,99.90
2018-09-02T18:34:42.405Z,99.90
2018-09-02T18:37:11.359Z,99.90
2018-09-02T18:39:43.168Z,99.90
2018-09-02T18:42:17.376Z,99.90
2018-09-02T18:44:52.355Z,99.90
2018-09-02T18:47:21.448Z,99.90
2018-09-02T18:52:26.138Z,99.90
2018-09-02T18:54:57.880Z,99.90
2018-09-02T18:57:32.466Z,99.90
2018-09-02T19:00:10.141Z,99.90
2018-09-02T19:02:40.681Z,99.90
2018-09-02T19:05:10.959Z,99.90
2018-09-02T19:07:48.550Z,99.90
2018-09-02T22:18:43.481Z,99.90
2018-09-02T22:21:11.898Z,99.90
2018-09-02T22:23:40.293Z,99.90
2018-09-02T22:26:08.676Z,99.90
2018-09-02T22:28:37.060Z,99.90
2018-09-02T22:31:06.233Z,99.90
2018-09-02T22:33:34.643Z,99.90
2018-09-02T22:36:02.995Z,99.90
2018-09-02T22:38:31.389Z,99.90
2018-09-02T22:40:59.822Z,99.90
2018-09-02T22:43:28.159Z,99.90
2018-09-02T22:45:56.563Z,99.90
2018-09-02T22:48:24.922Z,99.90
2018-09-02T22:50:53.322Z,99.90
2018-09-02T22:53:22.221Z,99.90
2018-09-02T22:55:50.669Z,99.90
2018-09-02T22:58:19.066Z,99.90
2018-09-02T23:00:47.559Z,99.90
2018-09-02T23:03:15.966Z,99.90
2018-09-02T23:05:44.331Z,99.90
2018-09-02T23:08:12.714Z,99.90
2018-09-02T23:10:41.304Z,99.90
2018-09-02T23:13:09.989Z,99.90
2018-09-02T23:15:38.497Z,99.90
2018-09-02T23:18:06.923Z,99.90
2018-09-02T23:20:35.252Z,99.90
2018-09-02T23:23:03.660Z,99.90
2018-09-02T23:25:32.019Z,99.90
2018-09-02T23:28:00.416Z,99.90
2018-09-02T23:30:28.852Z,99.90
2018-09-02T23:32:57.139Z,99.90
2018-09-02T23:35:25.538Z,99.90
2018-09-02T23:37:53.960Z,99.90
2018-09-02T23:40:22.314Z,99.90
2018-09-02T23:42:51.767Z,99.90
2018-09-02T23:45:20.137Z,99.90
2018-09-02T23:47:48.536Z,99.90
2018-09-02T23:50:16.989Z,99.90
2018-09-02T23:52:45.542Z,99.90
2018-09-02T23:55:14.559Z,99.90
2018-09-02T23:57:42.985Z,99.90
